sensor_id;sensor_type;location;lat;lon;timestamp;P1;durP1;ratioP1;P2;durP2;ratioP2
17363;SDS011;8799;43.594;13.526;2024-02-04T00:02:19;9.20;;;5.00;;
17363;SDS011;8799;43.594;13.526;2024-02-04T00:04:51;9.33;;;4.23;;
17363;SDS011;8799;43.594;13.526;2024-02-04T00:07:19;9.40;;;4.67;;
17363;SDS011;8799;43.594;13.526;2024-02-04T00:09:47;8.33;;;4.33;;
17363;SDS011;8799;43.594;13.526;2024-02-04T00:12:15;7.63;;;4.60;;
17363;SDS011;8799;43.594;13.526;2024-02-04T00:14:43;8.77;;;4.57;;
17363;SDS011;8799;43.594;13.526;2024-02-04T00:17:11;8.30;;;4.30;;
17363;SDS011;8799;43.594;13.526;2024-02-04T00:19:39;9.87;;;5.03;;
17363;SDS011;8799;43.594;13.526;2024-02-04T00:22:09;6.90;;;4.30;;
17363;SDS011;8799;43.594;13.526;2024-02-04T00:24:37;8.27;;;4.40;;
17363;SDS011;8799;43.594;13.526;2024-02-04T00:27:05;8.03;;;4.53;;
17363;SDS011;8799;43.594;13.526;2024-02-04T00:29:33;7.43;;;4.33;;
17363;SDS011;8799;43.594;13.526;2024-02-04T00:32:01;12.13;;;4.40;;
17363;SDS011;8799;43.594;13.526;2024-02-04T00:34:29;8.07;;;4.50;;
17363;SDS011;8799;43.594;13.526;2024-02-04T00:36:57;6.57;;;4.30;;
17363;SDS011;8799;43.594;13.526;2024-02-04T00:39:28;8.47;;;4.90;;
17363;SDS011;8799;43.594;13.526;2024-02-04T00:41:56;7.87;;;4.43;;
17363;SDS011;8799;43.594;13.526;2024-02-04T00:44:24;5.70;;;4.00;;
17363;SDS011;8799;43.594;13.526;2024-02-04T00:46:52;8.43;;;4.23;;
17363;SDS011;8799;43.594;13.526;2024-02-04T00:49:19;8.30;;;4.43;;
17363;SDS011;8799;43.594;13.526;2024-02-04T00:51:45;6.27;;;4.00;;
17363;SDS011;8799;43.594;13.526;2024-02-04T00:54:13;6.00;;;3.63;;
17363;SDS011;8799;43.594;13.526;2024-02-04T00:56:42;8.87;;;4.33;;
17363;SDS011;8799;43.594;13.526;2024-02-04T00:59:10;7.17;;;4.20;;
17363;SDS011;8799;43.594;13.526;2024-02-04T01:01:39;6.50;;;3.83;;
17363;SDS011;8799;43.594;13.526;2024-02-04T01:04:07;7.83;;;4.20;;
17363;SDS011;8799;43.594;13.526;2024-02-04T01:06:35;10.20;;;4.23;;
17363;SDS011;8799;43.594;13.526;2024-02-04T01:09:03;8.10;;;4.33;;
17363;SDS011;8799;43.594;13.526;2024-02-04T01:11:30;7.03;;;4.17;;
17363;SDS011;8799;43.594;13.526;2024-02-04T01:14:00;6.17;;;4.17;;
17363;SDS011;8799;43.594;13.526;2024-02-04T01:16:27;6.53;;;3.77;;
17363;SDS011;8799;43.594;13.526;2024-02-04T01:18:55;6.53;;;3.70;;
17363;SDS011;8799;43.594;13.526;2024-02-04T01:21:23;8.40;;;4.47;;
17363;SDS011;8799;43.594;13.526;2024-02-04T01:23:52;7.77;;;4.10;;
17363;SDS011;8799;43.594;13.526;2024-02-04T01:26:21;6.73;;;4.00;;
17363;SDS011;8799;43.594;13.526;2024-02-04T01:28:49;8.53;;;4.20;;
17363;SDS011;8799;43.594;13.526;2024-02-04T01:31:18;5.53;;;3.30;;
17363;SDS011;8799;43.594;13.526;2024-02-04T01:33:47;8.30;;;4.10;;
17363;SDS011;8799;43.594;13.526;2024-02-04T01:36:14;8.30;;;3.63;;
17363;SDS011;8799;43.594;13.526;2024-02-04T01:38:42;7.43;;;4.10;;
17363;SDS011;8799;43.594;13.526;2024-02-04T01:41:10;7.53;;;4.17;;
17363;SDS011;8799;43.594;13.526;2024-02-04T01:43:38;7.73;;;3.90;;
17363;SDS011;8799;43.594;13.526;2024-02-04T01:46:06;6.70;;;3.53;;
17363;SDS011;8799;43.594;13.526;2024-02-04T01:48:37;6.70;;;3.60;;
17363;SDS011;8799;43.594;13.526;2024-02-04T01:51:07;7.07;;;3.73;;
17363;SDS011;8799;43.594;13.526;2024-02-04T01:53:34;6.47;;;3.63;;
17363;SDS011;8799;43.594;13.526;2024-02-04T01:56:04;6.30;;;3.30;;
17363;SDS011;8799;43.594;13.526;2024-02-04T01:58:34;6.40;;;3.70;;
17363;SDS011;8799;43.594;13.526;2024-02-04T02:01:02;8.47;;;3.90;;
17363;SDS011;8799;43.594;13.526;2024-02-04T02:03:31;5.13;;;3.50;;
17363;SDS011;8799;43.594;13.526;2024-02-04T02:06:01;5.50;;;3.43;;
17363;SDS011;8799;43.594;13.526;2024-02-04T02:08:39;5.57;;;3.33;;
17363;SDS011;8799;43.594;13.526;2024-02-04T02:11:08;5.93;;;3.87;;
17363;SDS011;8799;43.594;13.526;2024-02-04T02:13:39;5.73;;;3.23;;
17363;SDS011;8799;43.594;13.526;2024-02-04T02:16:09;5.83;;;3.60;;
17363;SDS011;8799;43.594;13.526;2024-02-04T02:18:42;6.67;;;3.90;;
17363;SDS011;8799;43.594;13.526;2024-02-04T02:21:16;7.13;;;3.90;;
17363;SDS011;8799;43.594;13.526;2024-02-04T02:23:48;5.43;;;3.43;;
17363;SDS011;8799;43.594;13.526;2024-02-04T02:26:18;6.20;;;3.70;;
17363;SDS011;8799;43.594;13.526;2024-02-04T02:28:45;6.70;;;3.80;;
17363;SDS011;8799;43.594;13.526;2024-02-04T02:31:13;6.53;;;3.67;;
17363;SDS011;8799;43.594;13.526;2024-02-04T02:33:42;9.30;;;4.10;;
17363;SDS011;8799;43.594;13.526;2024-02-04T02:36:12;4.73;;;3.33;;
17363;SDS011;8799;43.594;13.526;2024-02-04T02:38:42;6.40;;;3.50;;
17363;SDS011;8799;43.594;13.526;2024-02-04T02:41:11;7.00;;;3.47;;
17363;SDS011;8799;43.594;13.526;2024-02-04T02:43:41;6.23;;;3.37;;
17363;SDS011;8799;43.594;13.526;2024-02-04T02:46:10;5.67;;;3.10;;
17363;SDS011;8799;43.594;13.526;2024-02-04T02:48:38;8.17;;;4.00;;
17363;SDS011;8799;43.594;13.526;2024-02-04T02:51:06;6.50;;;3.47;;
17363;SDS011;8799;43.594;13.526;2024-02-04T02:53:34;9.03;;;3.87;;
17363;SDS011;8799;43.594;13.526;2024-02-04T02:56:02;6.20;;;3.30;;
17363;SDS011;8799;43.594;13.526;2024-02-04T02:58:30;6.20;;;3.53;;
17363;SDS011;8799;43.594;13.526;2024-02-04T03:01:00;5.47;;;3.27;;
17363;SDS011;8799;43.594;13.526;2024-02-04T03:03:27;7.97;;;3.20;;
17363;SDS011;8799;43.594;13.526;2024-02-04T03:05:55;7.10;;;3.50;;
17363;SDS011;8799;43.594;13.526;2024-02-04T03:08:23;5.73;;;3.30;;
17363;SDS011;8799;43.594;13.526;2024-02-04T03:10:51;5.63;;;3.30;;
17363;SDS011;8799;43.594;13.526;2024-02-04T03:13:19;5.80;;;2.97;;
17363;SDS011;8799;43.594;13.526;2024-02-04T03:15:47;5.93;;;3.23;;
17363;SDS011;8799;43.594;13.526;2024-02-04T03:18:16;5.53;;;3.13;;
17363;SDS011;8799;43.594;13.526;2024-02-04T03:20:44;6.30;;;3.20;;
17363;SDS011;8799;43.594;13.526;2024-02-04T03:23:12;4.63;;;2.70;;
17363;SDS011;8799;43.594;13.526;2024-02-04T03:25:40;9.63;;;3.40;;
17363;SDS011;8799;43.594;13.526;2024-02-04T03:28:08;5.30;;;3.40;;
17363;SDS011;8799;43.594;13.526;2024-02-04T03:30:35;7.07;;;3.60;;
17363;SDS011;8799;43.594;13.526;2024-02-04T03:33:03;6.63;;;3.43;;
17363;SDS011;8799;43.594;13.526;2024-02-04T03:35:33;6.43;;;3.27;;
17363;SDS011;8799;43.594;13.526;2024-02-04T03:38:02;6.07;;;3.17;;
17363;SDS011;8799;43.594;13.526;2024-02-04T03:40:30;6.80;;;3.07;;
17363;SDS011;8799;43.594;13.526;2024-02-04T03:42:58;5.20;;;2.90;;
17363;SDS011;8799;43.594;13.526;2024-02-04T03:45:26;4.93;;;2.67;;
17363;SDS011;8799;43.594;13.526;2024-02-04T03:47:54;5.27;;;3.10;;
17363;SDS011;8799;43.594;13.526;2024-02-04T03:50:22;7.80;;;3.23;;
17363;SDS011;8799;43.594;13.526;2024-02-04T03:52:51;4.90;;;2.87;;
17363;SDS011;8799;43.594;13.526;2024-02-04T03:55:20;4.33;;;2.63;;
17363;SDS011;8799;43.594;13.526;2024-02-04T03:57:48;6.27;;;3.13;;
17363;SDS011;8799;43.594;13.526;2024-02-04T04:00:16;5.87;;;3.10;;
17363;SDS011;8799;43.594;13.526;2024-02-04T04:02:44;6.03;;;3.00;;
17363;SDS011;8799;43.594;13.526;2024-02-04T04:05:11;6.30;;;3.27;;
17363;SDS011;8799;43.594;13.526;2024-02-04T04:07:39;4.43;;;2.87;;
17363;SDS011;8799;43.594;13.526;2024-02-04T04:10:08;6.00;;;3.20;;
17363;SDS011;8799;43.594;13.526;2024-02-04T04:12:36;5.60;;;3.10;;
17363;SDS011;8799;43.594;13.526;2024-02-04T04:15:05;6.10;;;3.03;;
17363;SDS011;8799;43.594;13.526;2024-02-04T04:17:33;4.87;;;3.17;;
17363;SDS011;8799;43.594;13.526;2024-02-04T04:20:01;5.70;;;3.10;;
17363;SDS011;8799;43.594;13.526;2024-02-04T04:22:29;3.80;;;2.50;;
17363;SDS011;8799;43.594;13.526;2024-02-04T04:24:57;5.70;;;3.00;;
17363;SDS011;8799;43.594;13.526;2024-02-04T04:27:26;5.13;;;3.10;;
17363;SDS011;8799;43.594;13.526;2024-02-04T04:29:54;5.43;;;3.10;;
17363;SDS011;8799;43.594;13.526;2024-02-04T04:32:21;5.43;;;3.07;;
17363;SDS011;8799;43.594;13.526;2024-02-04T04:34:49;4.93;;;2.90;;
17363;SDS011;8799;43.594;13.526;2024-02-04T04:37:16;5.40;;;3.00;;
17363;SDS011;8799;43.594;13.526;2024-02-04T04:39:44;5.60;;;3.27;;
17363;SDS011;8799;43.594;13.526;2024-02-04T04:42:12;5.00;;;2.80;;
17363;SDS011;8799;43.594;13.526;2024-02-04T04:44:41;4.57;;;2.90;;
17363;SDS011;8799;43.594;13.526;2024-02-04T04:47:09;4.40;;;2.90;;
17363;SDS011;8799;43.594;13.526;2024-02-04T04:49:37;7.60;;;3.40;;
17363;SDS011;8799;43.594;13.526;2024-02-04T04:52:05;5.23;;;2.80;;
17363;SDS011;8799;43.594;13.526;2024-02-04T04:54:33;5.20;;;3.10;;
17363;SDS011;8799;43.594;13.526;2024-02-04T04:57:00;6.80;;;3.07;;
17363;SDS011;8799;43.594;13.526;2024-02-04T04:59:28;5.40;;;2.90;;
17363;SDS011;8799;43.594;13.526;2024-02-04T05:01:58;5.70;;;2.50;;
17363;SDS011;8799;43.594;13.526;2024-02-04T05:04:26;6.43;;;3.27;;
17363;SDS011;8799;43.594;13.526;2024-02-04T05:06:53;7.57;;;3.00;;
17363;SDS011;8799;43.594;13.526;2024-02-04T05:09:21;7.57;;;3.10;;
17363;SDS011;8799;43.594;13.526;2024-02-04T05:11:49;5.03;;;2.90;;
17363;SDS011;8799;43.594;13.526;2024-02-04T05:14:16;4.60;;;2.70;;
17363;SDS011;8799;43.594;13.526;2024-02-04T05:16:45;4.83;;;2.73;;
17363;SDS011;8799;43.594;13.526;2024-02-04T05:19:14;5.03;;;2.70;;
17363;SDS011;8799;43.594;13.526;2024-02-04T05:21:42;5.70;;;2.50;;
17363;SDS011;8799;43.594;13.526;2024-02-04T05:24:10;4.60;;;2.83;;
17363;SDS011;8799;43.594;13.526;2024-02-04T05:26:37;6.10;;;2.73;;
17363;SDS011;8799;43.594;13.526;2024-02-04T05:29:05;5.17;;;2.80;;
17363;SDS011;8799;43.594;13.526;2024-02-04T05:31:33;4.20;;;2.67;;
17363;SDS011;8799;43.594;13.526;2024-02-04T05:34:04;4.63;;;2.60;;
17363;SDS011;8799;43.594;13.526;2024-02-04T05:36:35;4.67;;;2.73;;
17363;SDS011;8799;43.594;13.526;2024-02-04T05:39:12;4.53;;;2.80;;
17363;SDS011;8799;43.594;13.526;2024-02-04T05:41:40;5.03;;;2.67;;
17363;SDS011;8799;43.594;13.526;2024-02-04T05:44:08;7.20;;;3.20;;
17363;SDS011;8799;43.594;13.526;2024-02-04T05:46:37;5.37;;;2.90;;
17363;SDS011;8799;43.594;13.526;2024-02-04T05:49:05;6.43;;;2.90;;
17363;SDS011;8799;43.594;13.526;2024-02-04T05:51:38;5.20;;;2.83;;
17363;SDS011;8799;43.594;13.526;2024-02-04T05:54:07;4.57;;;2.73;;
17363;SDS011;8799;43.594;13.526;2024-02-04T05:56:34;4.53;;;2.50;;
17363;SDS011;8799;43.594;13.526;2024-02-04T05:59:02;4.83;;;2.67;;
17363;SDS011;8799;43.594;13.526;2024-02-04T06:01:30;4.57;;;2.73;;
17363;SDS011;8799;43.594;13.526;2024-02-04T06:03:58;5.27;;;2.90;;
17363;SDS011;8799;43.594;13.526;2024-02-04T06:06:26;3.83;;;2.53;;
17363;SDS011;8799;43.594;13.526;2024-02-04T06:08:56;5.70;;;2.80;;
17363;SDS011;8799;43.594;13.526;2024-02-04T06:11:24;7.30;;;2.80;;
17363;SDS011;8799;43.594;13.526;2024-02-04T06:13:51;4.27;;;2.70;;
17363;SDS011;8799;43.594;13.526;2024-02-04T06:16:19;4.50;;;2.57;;
17363;SDS011;8799;43.594;13.526;2024-02-04T06:18:47;4.47;;;2.57;;
17363;SDS011;8799;43.594;13.526;2024-02-04T06:21:15;6.30;;;2.90;;
17363;SDS011;8799;43.594;13.526;2024-02-04T06:23:42;5.10;;;2.93;;
17363;SDS011;8799;43.594;13.526;2024-02-04T06:26:12;4.83;;;3.23;;
17363;SDS011;8799;43.594;13.526;2024-02-04T06:28:40;6.57;;;3.23;;
17363;SDS011;8799;43.594;13.526;2024-02-04T06:31:10;6.17;;;2.83;;
17363;SDS011;8799;43.594;13.526;2024-02-04T06:33:38;6.77;;;2.93;;
17363;SDS011;8799;43.594;13.526;2024-02-04T06:36:08;6.23;;;2.80;;
17363;SDS011;8799;43.594;13.526;2024-02-04T06:38:36;7.33;;;3.03;;
17363;SDS011;8799;43.594;13.526;2024-02-04T06:41:04;5.17;;;3.20;;
17363;SDS011;8799;43.594;13.526;2024-02-04T06:43:33;6.23;;;3.10;;
17363;SDS011;8799;43.594;13.526;2024-02-04T06:46:04;4.80;;;2.60;;
17363;SDS011;8799;43.594;13.526;2024-02-04T06:48:32;4.97;;;2.67;;
17363;SDS011;8799;43.594;13.526;2024-02-04T06:51:00;5.30;;;2.70;;
17363;SDS011;8799;43.594;13.526;2024-02-04T06:53:28;4.93;;;2.90;;
17363;SDS011;8799;43.594;13.526;2024-02-04T06:55:56;5.00;;;3.07;;
17363;SDS011;8799;43.594;13.526;2024-02-04T06:58:25;6.23;;;3.23;;
17363;SDS011;8799;43.594;13.526;2024-02-04T07:00:54;4.77;;;3.00;;
17363;SDS011;8799;43.594;13.526;2024-02-04T07:03:22;8.67;;;3.03;;
17363;SDS011;8799;43.594;13.526;2024-02-04T07:05:50;6.20;;;3.73;;
17363;SDS011;8799;43.594;13.526;2024-02-04T07:08:18;6.27;;;3.67;;
17363;SDS011;8799;43.594;13.526;2024-02-04T07:10:46;5.30;;;2.90;;
17363;SDS011;8799;43.594;13.526;2024-02-04T07:13:13;5.20;;;3.00;;
17363;SDS011;8799;43.594;13.526;2024-02-04T07:15:41;6.53;;;3.70;;
17363;SDS011;8799;43.594;13.526;2024-02-04T07:18:10;4.97;;;2.87;;
17363;SDS011;8799;43.594;13.526;2024-02-04T07:20:38;5.77;;;2.97;;
17363;SDS011;8799;43.594;13.526;2024-02-04T07:23:06;5.77;;;2.87;;
17363;SDS011;8799;43.594;13.526;2024-02-04T07:25:34;7.13;;;3.10;;
17363;SDS011;8799;43.594;13.526;2024-02-04T07:28:03;5.67;;;3.20;;
17363;SDS011;8799;43.594;13.526;2024-02-04T07:30:31;4.80;;;3.07;;
17363;SDS011;8799;43.594;13.526;2024-02-04T07:32:58;6.20;;;3.30;;
17363;SDS011;8799;43.594;13.526;2024-02-04T07:35:28;7.57;;;3.77;;
17363;SDS011;8799;43.594;13.526;2024-02-04T07:37:59;6.07;;;3.27;;
17363;SDS011;8799;43.594;13.526;2024-02-04T07:40:27;6.80;;;3.57;;
17363;SDS011;8799;43.594;13.526;2024-02-04T07:42:55;7.03;;;2.67;;
17363;SDS011;8799;43.594;13.526;2024-02-04T07:45:23;7.27;;;2.93;;
17363;SDS011;8799;43.594;13.526;2024-02-04T07:47:51;5.60;;;2.83;;
17363;SDS011;8799;43.594;13.526;2024-02-04T07:50:20;7.43;;;3.03;;
17363;SDS011;8799;43.594;13.526;2024-02-04T07:52:49;7.03;;;2.63;;
17363;SDS011;8799;43.594;13.526;2024-02-04T07:55:17;7.43;;;2.97;;
17363;SDS011;8799;43.594;13.526;2024-02-04T07:57:45;4.37;;;2.73;;
17363;SDS011;8799;43.594;13.526;2024-02-04T08:00:14;6.43;;;3.17;;
17363;SDS011;8799;43.594;13.526;2024-02-04T08:02:43;5.17;;;2.73;;
17363;SDS011;8799;43.594;13.526;2024-02-04T08:05:12;5.20;;;2.70;;
17363;SDS011;8799;43.594;13.526;2024-02-04T08:07:40;6.33;;;3.27;;
17363;SDS011;8799;43.594;13.526;2024-02-04T08:10:10;5.83;;;2.70;;
17363;SDS011;8799;43.594;13.526;2024-02-04T08:12:38;5.30;;;2.80;;
17363;SDS011;8799;43.594;13.526;2024-02-04T08:15:06;6.40;;;3.20;;
17363;SDS011;8799;43.594;13.526;2024-02-04T08:17:34;7.07;;;3.07;;
17363;SDS011;8799;43.594;13.526;2024-02-04T08:20:02;3.93;;;2.60;;
17363;SDS011;8799;43.594;13.526;2024-02-04T08:22:30;4.80;;;2.73;;
17363;SDS011;8799;43.594;13.526;2024-02-04T08:24:58;6.17;;;2.83;;
17363;SDS011;8799;43.594;13.526;2024-02-04T08:27:28;8.87;;;3.10;;
17363;SDS011;8799;43.594;13.526;2024-02-04T08:29:56;5.47;;;3.03;;
17363;SDS011;8799;43.594;13.526;2024-02-04T08:32:24;6.40;;;2.43;;
17363;SDS011;8799;43.594;13.526;2024-02-04T08:34:51;5.73;;;2.70;;
17363;SDS011;8799;43.594;13.526;2024-02-04T08:37:19;6.50;;;2.63;;
17363;SDS011;8799;43.594;13.526;2024-02-04T08:39:47;7.00;;;2.73;;
17363;SDS011;8799;43.594;13.526;2024-02-04T08:42:15;7.03;;;3.10;;
17363;SDS011;8799;43.594;13.526;2024-02-04T08:44:45;7.10;;;2.77;;
17363;SDS011;8799;43.594;13.526;2024-02-04T08:47:12;8.10;;;2.73;;
17363;SDS011;8799;43.594;13.526;2024-02-04T08:49:42;3.63;;;2.20;;
17363;SDS011;8799;43.594;13.526;2024-02-04T08:52:09;7.07;;;2.77;;
17363;SDS011;8799;43.594;13.526;2024-02-04T08:54:37;5.70;;;2.97;;
17363;SDS011;8799;43.594;13.526;2024-02-04T08:57:05;7.67;;;2.93;;
17363;SDS011;8799;43.594;13.526;2024-02-04T08:59:33;5.67;;;2.80;;
17363;SDS011;8799;43.594;13.526;2024-02-04T09:02:02;5.97;;;2.27;;
17363;SDS011;8799;43.594;13.526;2024-02-04T09:04:29;5.00;;;2.43;;
17363;SDS011;8799;43.594;13.526;2024-02-04T09:06:57;8.57;;;2.70;;
17363;SDS011;8799;43.594;13.526;2024-02-04T09:09:25;7.37;;;2.50;;
17363;SDS011;8799;43.594;13.526;2024-02-04T09:11:54;4.57;;;2.40;;
17363;SDS011;8799;43.594;13.526;2024-02-04T09:14:21;4.27;;;2.43;;
17363;SDS011;8799;43.594;13.526;2024-02-04T09:16:50;3.60;;;2.20;;
17363;SDS011;8799;43.594;13.526;2024-02-04T09:19:19;5.10;;;2.00;;
17363;SDS011;8799;43.594;13.526;2024-02-04T09:21:49;5.53;;;2.30;;
17363;SDS011;8799;43.594;13.526;2024-02-04T09:24:17;5.03;;;2.30;;
17363;SDS011;8799;43.594;13.526;2024-02-04T09:26:44;5.63;;;2.10;;
17363;SDS011;8799;43.594;13.526;2024-02-04T09:29:12;6.50;;;2.00;;
17363;SDS011;8799;43.594;13.526;2024-02-04T09:31:39;4.83;;;1.87;;
17363;SDS011;8799;43.594;13.526;2024-02-04T09:34:07;4.50;;;2.00;;
17363;SDS011;8799;43.594;13.526;2024-02-04T09:36:36;3.07;;;2.27;;
17363;SDS011;8799;43.594;13.526;2024-02-04T09:39:04;4.90;;;2.50;;
17363;SDS011;8799;43.594;13.526;2024-02-04T09:41:33;11.60;;;2.50;;
17363;SDS011;8799;43.594;13.526;2024-02-04T09:44:01;6.53;;;2.20;;
17363;SDS011;8799;43.594;13.526;2024-02-04T09:46:30;3.47;;;1.57;;
17363;SDS011;8799;43.594;13.526;2024-02-04T09:48:58;3.17;;;2.20;;
17363;SDS011;8799;43.594;13.526;2024-02-04T09:51:27;3.53;;;1.80;;
17363;SDS011;8799;43.594;13.526;2024-02-04T09:53:58;4.37;;;2.20;;
17363;SDS011;8799;43.594;13.526;2024-02-04T09:56:29;3.43;;;2.07;;
17363;SDS011;8799;43.594;13.526;2024-02-04T09:58:58;6.03;;;2.27;;
17363;SDS011;8799;43.594;13.526;2024-02-04T10:01:26;5.10;;;2.60;;
17363;SDS011;8799;43.594;13.526;2024-02-04T10:03:54;5.00;;;2.23;;
17363;SDS011;8799;43.594;13.526;2024-02-04T10:06:22;4.80;;;2.30;;
17363;SDS011;8799;43.594;13.526;2024-02-04T10:08:50;3.17;;;1.87;;
17363;SDS011;8799;43.594;13.526;2024-02-04T10:11:19;3.90;;;2.10;;
17363;SDS011;8799;43.594;13.526;2024-02-04T10:13:48;4.50;;;1.80;;
17363;SDS011;8799;43.594;13.526;2024-02-04T10:16:16;5.03;;;2.10;;
17363;SDS011;8799;43.594;13.526;2024-02-04T10:18:44;7.37;;;1.83;;
17363;SDS011;8799;43.594;13.526;2024-02-04T10:21:15;3.67;;;1.87;;
17363;SDS011;8799;43.594;13.526;2024-02-04T10:23:43;2.40;;;1.87;;
17363;SDS011;8799;43.594;13.526;2024-02-04T10:26:11;2.33;;;1.67;;
17363;SDS011;8799;43.594;13.526;2024-02-04T10:28:40;4.10;;;2.00;;
17363;SDS011;8799;43.594;13.526;2024-02-04T10:31:08;5.10;;;1.80;;
17363;SDS011;8799;43.594;13.526;2024-02-04T10:33:37;3.03;;;1.87;;
17363;SDS011;8799;43.594;13.526;2024-02-04T10:36:05;4.70;;;1.83;;
17363;SDS011;8799;43.594;13.526;2024-02-04T10:38:33;3.30;;;1.73;;
17363;SDS011;8799;43.594;13.526;2024-02-04T10:41:01;3.47;;;2.00;;
17363;SDS011;8799;43.594;13.526;2024-02-04T10:43:31;3.20;;;1.97;;
17363;SDS011;8799;43.594;13.526;2024-02-04T10:46:08;5.13;;;1.73;;
17363;SDS011;8799;43.594;13.526;2024-02-04T10:48:37;3.40;;;1.80;;
17363;SDS011;8799;43.594;13.526;2024-02-04T10:51:09;3.20;;;1.73;;
17363;SDS011;8799;43.594;13.526;2024-02-04T10:53:38;4.40;;;2.03;;
17363;SDS011;8799;43.594;13.526;2024-02-04T10:56:07;2.43;;;1.57;;
17363;SDS011;8799;43.594;13.526;2024-02-04T10:58:37;5.60;;;2.00;;
17363;SDS011;8799;43.594;13.526;2024-02-04T11:01:07;4.07;;;1.70;;
17363;SDS011;8799;43.594;13.526;2024-02-04T11:03:35;3.27;;;1.60;;
17363;SDS011;8799;43.594;13.526;2024-02-04T11:06:03;3.97;;;2.07;;
17363;SDS011;8799;43.594;13.526;2024-02-04T11:08:32;2.67;;;1.70;;
17363;SDS011;8799;43.594;13.526;2024-02-04T11:11:00;3.03;;;2.07;;
17363;SDS011;8799;43.594;13.526;2024-02-04T11:13:28;3.27;;;1.70;;
17363;SDS011;8799;43.594;13.526;2024-02-04T11:15:57;4.97;;;1.80;;
17363;SDS011;8799;43.594;13.526;2024-02-04T11:21:39;3.97;;;1.93;;
17363;SDS011;8799;43.594;13.526;2024-02-04T11:24:31;3.53;;;1.90;;
17363;SDS011;8799;43.594;13.526;2024-02-04T11:27:02;3.73;;;1.70;;
17363;SDS011;8799;43.594;13.526;2024-02-04T11:29:30;3.70;;;1.50;;
17363;SDS011;8799;43.594;13.526;2024-02-04T11:31:59;3.93;;;1.70;;
17363;SDS011;8799;43.594;13.526;2024-02-04T11:34:28;3.63;;;2.27;;
17363;SDS011;8799;43.594;13.526;2024-02-04T11:36:57;2.53;;;1.70;;
17363;SDS011;8799;43.594;13.526;2024-02-04T11:39:26;2.97;;;1.67;;
17363;SDS011;8799;43.594;13.526;2024-02-04T11:41:53;2.37;;;1.67;;
17363;SDS011;8799;43.594;13.526;2024-02-04T11:44:21;3.50;;;1.83;;
17363;SDS011;8799;43.594;13.526;2024-02-04T11:46:49;2.77;;;1.60;;
17363;SDS011;8799;43.594;13.526;2024-02-04T11:49:17;4.23;;;1.87;;
17363;SDS011;8799;43.594;13.526;2024-02-04T11:51:47;3.40;;;1.73;;
17363;SDS011;8799;43.594;13.526;2024-02-04T11:54:17;2.73;;;1.50;;
17363;SDS011;8799;43.594;13.526;2024-02-04T11:56:45;2.83;;;1.93;;
17363;SDS011;8799;43.594;13.526;2024-02-04T11:59:17;2.30;;;1.73;;
17363;SDS011;8799;43.594;13.526;2024-02-04T12:01:45;3.73;;;1.97;;
17363;SDS011;8799;43.594;13.526;2024-02-04T12:04:14;3.37;;;1.80;;
17363;SDS011;8799;43.594;13.526;2024-02-04T12:06:42;2.10;;;1.70;;
17363;SDS011;8799;43.594;13.526;2024-02-04T12:09:10;2.50;;;1.43;;
17363;SDS011;8799;43.594;13.526;2024-02-04T12:11:40;3.23;;;1.57;;
17363;SDS011;8799;43.594;13.526;2024-02-04T12:14:09;2.93;;;1.87;;
17363;SDS011;8799;43.594;13.526;2024-02-04T12:16:37;4.17;;;1.90;;
17363;SDS011;8799;43.594;13.526;2024-02-04T12:19:05;2.50;;;1.80;;
17363;SDS011;8799;43.594;13.526;2024-02-04T12:21:33;4.17;;;2.10;;
17363;SDS011;8799;43.594;13.526;2024-02-04T12:24:01;4.13;;;2.27;;
17363;SDS011;8799;43.594;13.526;2024-02-04T12:26:29;3.40;;;1.90;;
17363;SDS011;8799;43.594;13.526;2024-02-04T12:28:59;5.10;;;1.87;;
17363;SDS011;8799;43.594;13.526;2024-02-04T12:31:28;2.17;;;1.57;;
17363;SDS011;8799;43.594;13.526;2024-02-04T12:33:57;3.40;;;2.20;;
17363;SDS011;8799;43.594;13.526;2024-02-04T12:36:26;3.03;;;1.90;;
17363;SDS011;8799;43.594;13.526;2024-02-04T12:38:54;4.20;;;1.93;;
17363;SDS011;8799;43.594;13.526;2024-02-04T12:41:21;3.30;;;1.70;;
17363;SDS011;8799;43.594;13.526;2024-02-04T12:43:49;4.10;;;2.13;;
17363;SDS011;8799;43.594;13.526;2024-02-04T12:46:19;2.80;;;1.67;;
17363;SDS011;8799;43.594;13.526;2024-02-04T12:48:50;2.60;;;1.60;;
17363;SDS011;8799;43.594;13.526;2024-02-04T12:51:23;2.73;;;1.80;;
17363;SDS011;8799;43.594;13.526;2024-02-04T12:54:01;2.27;;;1.63;;
17363;SDS011;8799;43.594;13.526;2024-02-04T12:56:39;2.83;;;1.60;;
17363;SDS011;8799;43.594;13.526;2024-02-04T12:59:07;2.10;;;1.50;;
17363;SDS011;8799;43.594;13.526;2024-02-04T13:01:37;2.77;;;1.80;;
17363;SDS011;8799;43.594;13.526;2024-02-04T13:04:05;3.63;;;1.80;;
17363;SDS011;8799;43.594;13.526;2024-02-04T13:06:37;2.67;;;1.77;;
17363;SDS011;8799;43.594;13.526;2024-02-04T13:09:06;1.80;;;1.47;;
17363;SDS011;8799;43.594;13.526;2024-02-04T13:11:34;3.40;;;1.80;;
17363;SDS011;8799;43.594;13.526;2024-02-04T13:14:02;1.83;;;1.50;;
17363;SDS011;8799;43.594;13.526;2024-02-04T13:16:30;3.77;;;1.73;;
17363;SDS011;8799;43.594;13.526;2024-02-04T13:18:59;2.23;;;1.50;;
17363;SDS011;8799;43.594;13.526;2024-02-04T13:21:27;5.83;;;1.77;;
17363;SDS011;8799;43.594;13.526;2024-02-04T13:23:55;2.67;;;1.60;;
17363;SDS011;8799;43.594;13.526;2024-02-04T13:26:23;2.33;;;1.70;;
17363;SDS011;8799;43.594;13.526;2024-02-04T13:28:51;3.33;;;1.70;;
17363;SDS011;8799;43.594;13.526;2024-02-04T13:31:19;4.93;;;1.60;;
17363;SDS011;8799;43.594;13.526;2024-02-04T13:33:47;2.37;;;1.53;;
17363;SDS011;8799;43.594;13.526;2024-02-04T13:36:16;2.77;;;1.57;;
17363;SDS011;8799;43.594;13.526;2024-02-04T13:38:44;3.93;;;1.67;;
17363;SDS011;8799;43.594;13.526;2024-02-04T13:41:12;3.13;;;1.67;;
17363;SDS011;8799;43.594;13.526;2024-02-04T13:43:39;2.67;;;1.53;;
17363;SDS011;8799;43.594;13.526;2024-02-04T13:46:09;2.73;;;1.80;;
17363;SDS011;8799;43.594;13.526;2024-02-04T13:48:37;3.70;;;1.90;;
17363;SDS011;8799;43.594;13.526;2024-02-04T13:51:05;1.90;;;1.40;;
17363;SDS011;8799;43.594;13.526;2024-02-04T13:53:34;2.23;;;1.43;;
17363;SDS011;8799;43.594;13.526;2024-02-04T13:56:03;3.67;;;1.50;;
17363;SDS011;8799;43.594;13.526;2024-02-04T13:58:31;2.93;;;1.50;;
17363;SDS011;8799;43.594;13.526;2024-02-04T14:00:59;3.77;;;1.60;;
17363;SDS011;8799;43.594;13.526;2024-02-04T14:03:27;2.67;;;1.80;;
17363;SDS011;8799;43.594;13.526;2024-02-04T14:05:55;3.47;;;1.50;;
17363;SDS011;8799;43.594;13.526;2024-02-04T14:08:23;1.50;;;1.40;;
17363;SDS011;8799;43.594;13.526;2024-02-04T14:10:52;2.97;;;1.60;;
17363;SDS011;8799;43.594;13.526;2024-02-04T14:13:20;2.27;;;1.63;;
17363;SDS011;8799;43.594;13.526;2024-02-04T14:15:48;3.50;;;1.70;;
17363;SDS011;8799;43.594;13.526;2024-02-04T14:18:17;2.67;;;1.60;;
17363;SDS011;8799;43.594;13.526;2024-02-04T14:20:45;1.40;;;1.30;;
17363;SDS011;8799;43.594;13.526;2024-02-04T14:23:13;2.60;;;1.70;;
17363;SDS011;8799;43.594;13.526;2024-02-04T14:25:41;4.70;;;1.60;;
17363;SDS011;8799;43.594;13.526;2024-02-04T14:28:10;4.97;;;1.60;;
17363;SDS011;8799;43.594;13.526;2024-02-04T14:30:38;4.07;;;2.20;;
17363;SDS011;8799;43.594;13.526;2024-02-04T14:33:05;2.07;;;1.57;;
17363;SDS011;8799;43.594;13.526;2024-02-04T14:35:33;3.60;;;1.67;;
17363;SDS011;8799;43.594;13.526;2024-02-04T14:38:01;2.10;;;1.50;;
17363;SDS011;8799;43.594;13.526;2024-02-04T14:40:29;1.77;;;1.40;;
17363;SDS011;8799;43.594;13.526;2024-02-04T14:42:57;8.03;;;2.00;;
17363;SDS011;8799;43.594;13.526;2024-02-04T14:45:27;3.77;;;1.67;;
17363;SDS011;8799;43.594;13.526;2024-02-04T14:47:55;1.90;;;1.53;;
17363;SDS011;8799;43.594;13.526;2024-02-04T14:50:22;1.83;;;1.53;;
17363;SDS011;8799;43.594;13.526;2024-02-04T14:52:50;1.90;;;1.50;;
17363;SDS011;8799;43.594;13.526;2024-02-04T14:55:18;3.20;;;1.60;;
17363;SDS011;8799;43.594;13.526;2024-02-04T14:57:46;2.73;;;1.60;;
17363;SDS011;8799;43.594;13.526;2024-02-04T15:00:14;1.90;;;1.40;;